Terminal Aerodrome Forecast
Issued by NWS

Home | Current Version | Previous Version | Text Only | Print | Product List | Glossary On
Versions: 1 2 3 4 5 6 7 8 9 10 11 12
000
FTPQ31 PGUM 242329
TAFGUM
TAF

TAF
PTRO 242329Z 2500/2524 02005KT P6SM VCSH FEW016 SCT030
      TEMPO 2503/2506 VRB05KT 5SM -SHRA SCT014 BKN025=

USA.gov is the U.S. government's official web portal to all federal, state and local government web resources and services.